createdAt,value
2019-03-26T00:02:27.218Z,38.35
2019-03-26T00:04:58.010Z,39.42
2019-03-26T00:07:28.931Z,38.70
2019-03-26T00:09:59.699Z,38.63
2019-03-26T00:12:30.500Z,37.83
2019-03-26T00:15:02.060Z,37.28
2019-03-26T00:17:32.894Z,37.45
2019-03-26T00:20:03.711Z,36.90
2019-03-26T00:22:34.509Z,37.53
2019-03-26T00:25:05.560Z,35.90
2019-03-26T00:27:36.503Z,37.63
2019-03-26T00:30:07.508Z,37.60
2019-03-26T00:32:38.261Z,37.42
2019-03-26T00:35:09.098Z,35.40
2019-03-26T00:37:42.956Z,36.03
2019-03-26T00:40:13.793Z,36.65
2019-03-26T00:42:44.615Z,34.70
2019-03-26T00:45:16.411Z,34.05
2019-03-26T00:47:47.173Z,35.78
2019-03-26T00:50:18.032Z,34.00
2019-03-26T00:52:48.810Z,34.05
2019-03-26T00:55:22.905Z,34.63
2019-03-26T00:57:52.259Z,33.73
2019-03-26T01:00:37.726Z,33.90
2019-03-26T01:03:08.539Z,34.18
2019-03-26T01:05:39.372Z,33.23
2019-03-26T01:08:10.313Z,31.93
2019-03-26T01:10:41.139Z,32.08
2019-03-26T01:13:11.955Z,32.15
2019-03-26T01:15:42.742Z,30.95
2019-03-26T01:18:13.571Z,32.25
2019-03-26T01:20:44.528Z,31.93
2019-03-26T01:23:15.300Z,32.10
2019-03-26T01:25:46.097Z,31.82
2019-03-26T01:28:17.437Z,30.43
2019-03-26T01:30:48.278Z,31.02
2019-03-26T01:33:19.086Z,31.35
2019-03-26T01:35:50.233Z,30.77
2019-03-26T01:38:21.001Z,31.45
2019-03-26T01:40:51.831Z,30.40
2019-03-26T01:43:22.617Z,30.45
2019-03-26T01:45:53.641Z,29.63
2019-03-26T01:48:24.470Z,29.77
2019-03-26T01:50:55.280Z,29.80
2019-03-26T01:53:27.108Z,30.08
2019-03-26T01:55:57.920Z,27.98
2019-03-26T01:58:28.710Z,28.90
2019-03-26T02:00:59.516Z,28.42
2019-03-26T02:03:30.248Z,28.38
2019-03-26T02:06:03.069Z,27.67
2019-03-26T02:08:33.857Z,27.05
2019-03-26T02:11:04.738Z,27.73
2019-03-26T02:13:35.514Z,27.40
2019-03-26T02:16:06.385Z,27.27
2019-03-26T02:18:37.130Z,26.37
2019-03-26T02:21:07.938Z,26.82
2019-03-26T02:23:38.839Z,25.32
2019-03-26T02:26:11.274Z,26.52
2019-03-26T02:28:42.103Z,25.88
2019-03-26T02:31:12.920Z,24.65
2019-03-26T02:33:44.853Z,24.70
2019-03-26T02:36:15.743Z,25.65
2019-03-26T02:38:47.546Z,25.05
2019-03-26T02:41:18.628Z,24.30
2019-03-26T02:43:49.519Z,24.47
2019-03-26T02:46:20.365Z,24.50
2019-03-26T02:48:51.308Z,24.20
2019-03-26T02:51:22.166Z,24.23
2019-03-26T02:53:52.930Z,23.32
2019-03-26T02:56:26.468Z,22.87
2019-03-26T02:58:57.275Z,23.73
2019-03-26T03:01:28.041Z,22.67
2019-03-26T03:03:58.866Z,22.85
2019-03-26T03:06:29.610Z,23.12
2019-03-26T03:09:00.469Z,23.20
2019-03-26T03:11:31.785Z,22.93
2019-03-26T03:14:02.611Z,22.93
2019-03-26T03:16:34.842Z,21.93
2019-03-26T03:19:05.757Z,22.17
2019-03-26T03:21:36.584Z,23.27
2019-03-26T03:24:07.485Z,21.68
2019-03-26T03:26:38.334Z,22.22
2019-03-26T03:29:09.296Z,21.80
2019-03-26T03:31:40.189Z,21.12
2019-03-26T03:34:14.133Z,20.85
2019-03-26T03:36:44.866Z,21.15
2019-03-26T03:39:15.747Z,20.92
2019-03-26T03:41:46.489Z,20.85
2019-03-26T03:44:17.308Z,21.23
2019-03-26T03:46:48.117Z,20.60
2019-03-26T03:49:20.483Z,19.77
2019-03-26T03:51:51.452Z,20.30
2019-03-26T03:54:22.430Z,18.95
2019-03-26T03:56:54.236Z,19.70
2019-03-26T03:59:25.095Z,18.57
2019-03-26T04:01:56.031Z,18.95
2019-03-26T04:04:26.833Z,19.07
2019-03-26T04:06:57.588Z,18.48
2019-03-26T04:09:28.347Z,17.80
2019-03-26T04:11:59.152Z,18.52
2019-03-26T04:14:29.957Z,18.75
2019-03-26T04:17:00.717Z,18.42
2019-03-26T04:19:31.561Z,17.80
2019-03-26T04:22:02.299Z,17.12
2019-03-26T04:24:33.583Z,16.90
2019-03-26T04:27:04.383Z,18.35
2019-03-26T04:29:35.169Z,16.70
2019-03-26T04:32:05.944Z,17.65
2019-03-26T04:34:36.787Z,17.55
2019-03-26T04:37:09.189Z,17.37
2019-03-26T04:39:40.038Z,17.12
2019-03-26T04:42:10.839Z,16.55
2019-03-26T04:44:41.709Z,16.05
2019-03-26T04:47:12.552Z,16.45
2019-03-26T04:49:43.343Z,16.82
2019-03-26T04:52:14.099Z,16.87
2019-03-26T04:54:45.018Z,17.30
2019-03-26T04:57:15.849Z,16.62
2019-03-26T04:59:46.717Z,16.42
2019-03-26T05:02:17.557Z,15.80
2019-03-26T05:04:48.420Z,16.85
2019-03-26T05:07:19.226Z,15.40
2019-03-26T05:09:50.088Z,14.78
2019-03-26T05:12:20.903Z,14.98
2019-03-26T05:14:51.656Z,15.43
2019-03-26T05:17:22.439Z,14.78
2019-03-26T05:19:55.523Z,14.15
2019-03-26T05:22:26.351Z,14.87
2019-03-26T05:24:57.215Z,15.05
2019-03-26T05:27:28.536Z,14.55
2019-03-26T05:29:59.312Z,14.58
2019-03-26T05:32:30.309Z,14.60
2019-03-26T05:35:01.407Z,15.10
2019-03-26T05:37:37.456Z,13.80
2019-03-26T05:40:09.256Z,15.18
2019-03-26T05:42:40.398Z,14.60
2019-03-26T05:45:14.245Z,13.18
2019-03-26T05:47:45.090Z,13.25
2019-03-26T05:50:15.829Z,12.95
2019-03-26T05:52:48.819Z,12.73
2019-03-26T05:55:20.651Z,12.60
2019-03-26T05:57:51.510Z,12.23
2019-03-26T06:00:24.344Z,12.43
2019-03-26T06:02:55.144Z,12.30
2019-03-26T06:05:26.234Z,12.05
2019-03-26T06:07:57.033Z,14.58
2019-03-26T06:10:27.844Z,13.72
2019-03-26T06:12:59.022Z,13.60
2019-03-26T06:15:29.826Z,13.45
2019-03-26T06:18:00.555Z,13.88
2019-03-26T06:20:31.328Z,14.28
2019-03-26T06:23:02.224Z,13.98
2019-03-26T06:25:34.065Z,15.15
2019-03-26T06:28:06.924Z,13.60
2019-03-26T06:30:38.118Z,13.60
2019-03-26T06:33:08.871Z,20.95
2019-03-26T06:35:42.519Z,46.63
2019-03-26T06:38:13.636Z,50.78
2019-03-26T06:40:46.816Z,41.10
2019-03-26T06:43:17.665Z,30.72
2019-03-26T06:45:48.473Z,21.45
2019-03-26T06:48:19.902Z,13.62
2019-03-26T06:50:50.798Z,10.65
2019-03-26T06:53:21.536Z,11.75
2019-03-26T06:55:52.313Z,14.87
2019-03-26T06:58:23.465Z,16.87
2019-03-26T07:00:55.788Z,16.67
2019-03-26T07:03:27.256Z,16.75
2019-03-26T07:05:57.960Z,17.17
2019-03-26T07:08:29.013Z,15.70
2019-03-26T07:10:59.825Z,16.60
2019-03-26T07:13:32.264Z,15.78
2019-03-26T07:16:03.013Z,16.02
2019-03-26T07:18:33.784Z,17.27
2019-03-26T07:21:04.554Z,16.27
2019-03-26T07:23:35.384Z,14.47
2019-03-26T07:26:06.221Z,15.65
2019-03-26T07:28:37.033Z,15.15
2019-03-26T07:31:07.955Z,14.95
2019-03-26T07:33:38.866Z,15.18
2019-03-26T07:36:09.936Z,14.75
2019-03-26T07:38:40.976Z,14.15
2019-03-26T07:41:11.688Z,12.88
2019-03-26T07:43:42.597Z,11.75
2019-03-26T07:46:13.480Z,11.20
2019-03-26T07:48:44.322Z,11.68
2019-03-26T07:51:19.204Z,10.58
2019-03-26T07:53:50.057Z,10.85
2019-03-26T07:56:20.916Z,11.70
2019-03-26T07:58:51.696Z,11.70
2019-03-26T08:01:22.549Z,11.08
2019-03-26T08:03:53.411Z,10.90
2019-03-26T08:06:25.805Z,11.10
2019-03-26T08:08:56.677Z,10.82
2019-03-26T08:11:27.492Z,10.53
2019-03-26T08:13:58.861Z,10.82
2019-03-26T08:16:29.775Z,7.92
2019-03-26T08:19:00.682Z,6.80
2019-03-26T08:21:31.535Z,8.38
2019-03-26T08:24:02.310Z,7.37
2019-03-26T08:26:33.134Z,4.33
2019-03-26T08:29:07.210Z,6.90
2019-03-26T08:31:38.045Z,6.67
2019-03-26T08:34:09.874Z,6.70
2019-03-26T08:36:40.763Z,6.90
2019-03-26T08:39:11.503Z,6.45
2019-03-26T08:41:42.229Z,6.50
2019-03-26T08:44:12.980Z,6.92
2019-03-26T08:46:46.265Z,7.00
2019-03-26T08:49:16.328Z,8.58
2019-03-26T08:51:47.106Z,6.75
2019-03-26T08:54:18.033Z,6.80
2019-03-26T08:56:48.910Z,6.20
2019-03-26T08:59:19.864Z,6.17
2019-03-26T09:01:50.600Z,6.10
2019-03-26T09:04:21.398Z,5.72
2019-03-26T09:06:52.109Z,6.50
2019-03-26T09:09:23.983Z,6.20
2019-03-26T09:11:54.826Z,6.83
2019-03-26T09:14:25.625Z,6.00
2019-03-26T09:16:57.527Z,5.80
2019-03-26T09:19:28.283Z,5.97
2019-03-26T09:21:59.176Z,5.55
2019-03-26T09:24:29.925Z,5.85
2019-03-26T09:27:00.709Z,33.48
2019-03-26T09:29:32.515Z,23.05
2019-03-26T09:32:03.296Z,16.82
2019-03-26T09:34:34.121Z,29.98
2019-03-26T09:37:05.027Z,36.53
2019-03-26T09:39:38.258Z,29.42
2019-03-26T09:42:08.341Z,27.07
2019-03-26T09:44:40.744Z,23.57
2019-03-26T09:47:16.306Z,21.97
2019-03-26T09:49:44.156Z,20.65
2019-03-26T09:52:14.983Z,19.17
2019-03-26T09:54:45.819Z,18.30
2019-03-26T09:57:16.626Z,19.15
2019-03-26T09:59:47.438Z,17.77
2019-03-26T10:02:19.270Z,17.48
2019-03-26T10:04:50.219Z,16.25
2019-03-26T10:07:22.012Z,16.10
2019-03-26T10:09:53.108Z,15.10
2019-03-26T10:12:25.011Z,16.65
2019-03-26T10:14:55.881Z,15.78
2019-03-26T10:17:26.795Z,14.20
2019-03-26T10:19:57.715Z,14.30
2019-03-26T10:22:28.579Z,13.93
2019-03-26T10:24:59.421Z,12.33
2019-03-26T10:27:30.239Z,12.80
2019-03-26T10:30:01.075Z,12.95
2019-03-26T10:32:32.084Z,11.83
2019-03-26T10:35:03.057Z,12.00
2019-03-26T10:37:33.850Z,12.33
2019-03-26T10:40:04.892Z,11.63
2019-03-26T10:42:35.715Z,12.03
2019-03-26T10:45:06.779Z,10.63
2019-03-26T10:47:37.586Z,10.70
2019-03-26T10:50:08.510Z,10.15
2019-03-26T10:52:40.344Z,10.30
2019-03-26T10:55:11.283Z,10.55
2019-03-26T10:57:42.087Z,9.45
2019-03-26T11:00:12.968Z,9.28
2019-03-26T11:02:43.855Z,8.90
2019-03-26T11:05:14.995Z,8.68
2019-03-26T11:07:45.861Z,9.30
2019-03-26T11:10:16.649Z,7.90
2019-03-26T11:12:47.573Z,7.65
2019-03-26T11:15:18.488Z,8.60
2019-03-26T11:17:49.336Z,8.10
2019-03-26T11:20:20.031Z,8.20
2019-03-26T11:22:50.779Z,7.12
2019-03-26T11:25:21.460Z,7.67
2019-03-26T11:27:52.272Z,6.67
2019-03-26T11:30:22.967Z,7.53
2019-03-26T11:32:53.703Z,7.00
2019-03-26T11:35:24.388Z,6.70
2019-03-26T11:37:55.224Z,6.55
2019-03-26T11:40:25.908Z,7.00
2019-03-26T11:42:56.651Z,6.97
2019-03-26T11:45:27.446Z,6.92
2019-03-26T11:47:58.342Z,6.28
2019-03-26T11:50:29.130Z,5.83
2019-03-26T11:52:59.877Z,6.62
2019-03-26T11:55:30.645Z,6.83
2019-03-26T11:58:01.447Z,7.37
2019-03-26T12:00:35.284Z,7.45
2019-03-26T12:03:06.074Z,8.75
2019-03-26T12:05:36.890Z,9.95
2019-03-26T12:08:08.513Z,10.03
2019-03-26T12:10:39.409Z,9.95
2019-03-26T12:13:10.242Z,9.00
2019-03-26T12:15:41.091Z,10.32
2019-03-26T12:18:11.910Z,11.60
2019-03-26T12:20:44.810Z,11.28
2019-03-26T12:23:15.601Z,12.00
2019-03-26T12:25:46.876Z,10.30
2019-03-26T12:28:18.010Z,10.78
2019-03-26T12:30:50.246Z,10.38
2019-03-26T12:33:21.221Z,10.18
2019-03-26T12:35:52.682Z,10.05
2019-03-26T12:38:24.001Z,9.68
2019-03-26T12:40:55.150Z,9.55
2019-03-26T12:43:26.233Z,10.03
2019-03-26T12:45:57.418Z,7.87
2019-03-26T12:48:28.506Z,21.90
2019-03-26T12:51:00.125Z,28.95
2019-03-26T12:53:34.398Z,22.35
2019-03-26T12:56:05.677Z,19.82
2019-03-26T12:58:36.958Z,19.85
2019-03-26T13:01:08.071Z,19.10
2019-03-26T13:03:39.324Z,16.62
2019-03-26T13:06:10.708Z,17.40
2019-03-26T13:08:41.818Z,16.40
2019-03-26T13:11:13.298Z,16.75
2019-03-26T13:13:44.174Z,14.78
2019-03-26T13:16:15.000Z,15.13
2019-03-26T13:18:45.813Z,14.38
2019-03-26T13:21:16.700Z,13.85
2019-03-26T13:23:47.735Z,12.70
2019-03-26T13:26:18.799Z,11.95
2019-03-26T13:28:49.771Z,13.35
2019-03-26T13:31:21.196Z,11.65
2019-03-26T13:33:52.569Z,10.40
2019-03-26T13:36:23.874Z,13.75
2019-03-26T13:38:59.173Z,14.65
2019-03-26T13:41:32.917Z,11.90
2019-03-26T13:44:04.232Z,10.88
2019-03-26T13:46:35.070Z,9.18
2019-03-26T13:49:06.002Z,9.15
2019-03-26T13:51:37.335Z,9.40
2019-03-26T13:54:08.239Z,8.80
2019-03-26T13:56:39.059Z,8.78
2019-03-26T13:59:09.861Z,8.45
2019-03-26T14:01:42.139Z,5.92
2019-03-26T14:04:14.467Z,6.05
2019-03-26T14:06:45.367Z,5.12
2019-03-26T14:09:14.285Z,3.75
2019-03-26T14:11:43.129Z,4.70
2019-03-26T14:14:14.415Z,3.45
2019-03-26T14:16:45.142Z,2.83
2019-03-26T14:19:15.953Z,3.27
2019-03-26T14:21:46.836Z,4.95
2019-03-26T14:24:17.837Z,9.38
2019-03-26T14:26:48.651Z,9.85
2019-03-26T14:29:19.536Z,5.15
2019-03-26T14:31:50.500Z,3.55
2019-03-26T14:34:21.231Z,2.52
2019-03-26T14:36:52.057Z,2.40
2019-03-26T14:39:22.896Z,2.20
2019-03-26T14:41:53.825Z,2.60
2019-03-26T14:44:24.607Z,1.98
2019-03-26T14:46:55.459Z,1.82
2019-03-26T14:49:26.309Z,1.50
2019-03-26T14:51:57.161Z,1.90
2019-03-26T14:54:27.940Z,1.65
2019-03-26T14:56:58.884Z,1.85
2019-03-26T14:59:29.738Z,1.90
2019-03-26T15:02:00.591Z,1.55
2019-03-26T15:04:36.692Z,18.05
2019-03-26T15:07:08.744Z,38.92
2019-03-26T15:09:39.592Z,35.45
2019-03-26T15:12:10.556Z,13.10
2019-03-26T15:14:41.410Z,8.28
2019-03-26T15:17:12.323Z,5.50
2019-03-26T15:19:43.212Z,6.20
2019-03-26T15:22:13.941Z,4.22
2019-03-26T15:24:44.882Z,3.33
2019-03-26T15:27:15.702Z,2.80
2019-03-26T15:29:46.562Z,3.02
2019-03-26T15:32:17.500Z,2.80
2019-03-26T15:34:49.297Z,3.87
2019-03-26T15:37:20.101Z,2.62
2019-03-26T15:39:50.911Z,2.22
2019-03-26T15:42:22.998Z,2.27
2019-03-26T15:44:53.949Z,2.37
2019-03-26T15:47:24.799Z,1.87
2019-03-26T15:49:55.631Z,1.50
2019-03-26T15:52:26.470Z,2.60
2019-03-26T15:54:57.342Z,1.98
2019-03-26T15:57:28.083Z,4.30
2019-03-26T15:59:58.924Z,15.45
2019-03-26T16:02:29.888Z,21.87
2019-03-26T16:05:00.634Z,13.22
2019-03-26T16:07:33.450Z,7.55
2019-03-26T16:10:04.335Z,5.78
2019-03-26T16:12:41.074Z,3.85
2019-03-26T16:15:08.491Z,4.55
2019-03-26T16:17:39.390Z,10.70
2019-03-26T16:20:10.206Z,26.52
2019-03-26T16:22:41.297Z,49.93
2019-03-26T16:25:12.058Z,34.03
2019-03-26T16:27:42.873Z,27.52
2019-03-26T16:30:13.599Z,23.00
2019-03-26T16:32:44.431Z,20.12
2019-03-26T16:35:15.192Z,18.00
2019-03-26T16:37:46.025Z,15.58
2019-03-26T16:40:16.930Z,14.25
2019-03-26T16:42:47.735Z,14.15
2019-03-26T16:45:18.557Z,13.70
2019-03-26T16:47:49.359Z,13.00
2019-03-26T16:50:20.246Z,12.03
2019-03-26T16:52:51.177Z,10.72
2019-03-26T16:55:22.092Z,10.35
2019-03-26T16:57:52.978Z,10.43
2019-03-26T17:00:32.224Z,10.58
2019-03-26T17:03:03.095Z,8.95
2019-03-26T17:05:33.913Z,8.13
2019-03-26T17:08:04.994Z,9.08
2019-03-26T17:10:35.783Z,8.70
2019-03-26T17:13:06.818Z,8.25
2019-03-26T17:15:37.806Z,8.73
2019-03-26T17:18:11.838Z,9.08
2019-03-26T17:20:43.421Z,9.48
2019-03-26T17:23:14.591Z,9.43
2019-03-26T17:25:45.702Z,9.00
2019-03-26T17:28:19.928Z,9.18
2019-03-26T17:30:55.429Z,8.55
2019-03-26T17:33:28.976Z,9.50
2019-03-26T17:35:59.286Z,8.73
2019-03-26T17:38:30.437Z,9.33
2019-03-26T17:41:01.288Z,16.48
2019-03-26T17:43:32.211Z,18.12
2019-03-26T17:46:03.084Z,18.10
2019-03-26T17:48:33.950Z,16.30
2019-03-26T17:51:04.939Z,12.98
2019-03-26T17:53:35.886Z,12.35
2019-03-26T17:56:07.594Z,10.70
2019-03-26T17:58:40.270Z,11.43
2019-03-26T18:01:11.767Z,11.43
2019-03-26T18:03:42.604Z,10.68
2019-03-26T18:06:16.797Z,11.10
2019-03-26T18:08:47.625Z,8.18
2019-03-26T18:11:18.415Z,5.62
2019-03-26T18:13:49.258Z,6.08
2019-03-26T18:16:20.075Z,7.60
2019-03-26T18:18:50.837Z,16.10
2019-03-26T18:21:23.074Z,15.75
2019-03-26T18:23:55.159Z,12.95
2019-03-26T18:26:26.383Z,12.95
2019-03-26T18:28:58.343Z,12.75
2019-03-26T18:31:31.303Z,12.43
2019-03-26T18:34:02.141Z,12.63
2019-03-26T18:36:33.625Z,12.33
2019-03-26T18:39:06.501Z,11.68
2019-03-26T18:41:38.148Z,13.93
2019-03-26T18:44:09.252Z,17.87
2019-03-26T18:46:40.311Z,19.87
2019-03-26T18:49:11.603Z,22.00
2019-03-26T18:51:42.763Z,26.15
2019-03-26T18:54:15.360Z,26.15
2019-03-26T18:56:46.408Z,26.50
2019-03-26T18:59:17.739Z,27.00
2019-03-26T19:01:49.126Z,27.95
2019-03-26T19:04:20.548Z,26.15
2019-03-26T19:06:51.428Z,27.58
2019-03-26T19:09:22.690Z,28.12
2019-03-26T19:11:53.586Z,27.55
2019-03-26T19:14:25.097Z,29.65
2019-03-26T19:16:56.466Z,34.03
2019-03-26T19:19:27.735Z,37.42
2019-03-26T19:21:58.958Z,47.67
2019-03-26T19:24:30.018Z,48.20
2019-03-26T19:27:04.288Z,52.33
2019-03-26T19:29:35.019Z,50.90
2019-03-26T19:32:07.287Z,49.20
2019-03-26T19:34:38.983Z,50.15
2019-03-26T19:37:10.217Z,46.73
2019-03-26T19:39:41.605Z,45.88
2019-03-26T19:42:12.510Z,44.88
2019-03-26T19:44:43.415Z,44.85
2019-03-26T19:47:14.665Z,42.60
2019-03-26T19:49:48.267Z,43.08
2019-03-26T19:52:20.706Z,41.88
2019-03-26T19:54:54.195Z,38.05
2019-03-26T19:57:25.197Z,41.70
2019-03-26T19:59:56.093Z,39.73
2019-03-26T20:02:26.921Z,40.35
2019-03-26T20:04:57.757Z,41.23
2019-03-26T20:07:28.716Z,42.35
2019-03-26T20:09:59.780Z,40.73
2019-03-26T20:12:30.635Z,43.87
2019-03-26T20:15:01.631Z,45.88
2019-03-26T20:17:32.741Z,47.90
2019-03-26T20:20:04.157Z,50.65
2019-03-26T20:22:35.597Z,51.98
2019-03-26T20:25:07.556Z,52.88
2019-03-26T20:27:40.088Z,54.30
2019-03-26T20:30:11.967Z,52.85
2019-03-26T20:32:42.926Z,54.77
2019-03-26T20:35:14.835Z,52.05
2019-03-26T20:37:46.717Z,54.80
2019-03-26T20:40:17.613Z,55.50
2019-03-26T20:42:48.596Z,52.13
2019-03-26T20:45:19.437Z,52.25
2019-03-26T20:47:50.694Z,51.85
2019-03-26T20:50:21.550Z,52.13
2019-03-26T20:52:53.998Z,51.73
2019-03-26T20:55:35.123Z,64.37
2019-03-26T20:58:05.967Z,70.47
2019-03-26T21:00:38.071Z,66.57
2019-03-26T21:03:09.176Z,66.50
2019-03-26T21:05:40.041Z,65.80
2019-03-26T21:08:10.949Z,66.42
2019-03-26T21:10:41.787Z,68.33
2019-03-26T21:13:12.656Z,68.57
2019-03-26T21:15:56.365Z,66.95
2019-03-26T21:18:16.269Z,64.85
2019-03-26T21:20:48.409Z,65.65
2019-03-26T21:23:19.310Z,65.67
2019-03-26T21:25:50.137Z,67.62
2019-03-26T21:28:22.133Z,65.55
2019-03-26T21:30:52.951Z,64.58
2019-03-26T21:33:23.699Z,62.93
2019-03-26T21:35:54.580Z,63.70
2019-03-26T21:38:25.330Z,63.10
2019-03-26T21:40:56.215Z,71.50
2019-03-26T21:43:27.013Z,73.47
2019-03-26T21:45:57.795Z,77.17
2019-03-26T21:48:28.651Z,80.65
2019-03-26T21:50:59.417Z,77.32
2019-03-26T21:53:30.190Z,77.17
2019-03-26T21:56:06.867Z,77.08
2019-03-26T21:58:33.993Z,75.20
2019-03-26T22:01:05.000Z,73.05
2019-03-26T22:03:35.884Z,75.83
2019-03-26T22:06:07.163Z,70.70
2019-03-26T22:08:39.041Z,72.03
2019-03-26T22:11:10.148Z,72.70
2019-03-26T22:13:40.982Z,70.90
2019-03-26T22:16:11.866Z,71.72
2019-03-26T22:18:42.720Z,68.97
2019-03-26T22:21:13.532Z,70.65
2019-03-26T22:23:44.347Z,71.12
2019-03-26T22:26:15.198Z,67.32
2019-03-26T22:28:46.010Z,69.20
2019-03-26T22:31:16.926Z,68.67
2019-03-26T22:33:47.721Z,67.87
2019-03-26T22:36:18.629Z,66.53
2019-03-26T22:38:50.423Z,66.42
2019-03-26T22:41:21.287Z,64.67
2019-03-26T22:43:54.982Z,65.35
2019-03-26T22:46:24.605Z,64.42
2019-03-26T22:48:55.311Z,64.65
2019-03-26T22:51:26.284Z,61.85
2019-03-26T22:53:57.019Z,58.92
2019-03-26T22:56:27.933Z,61.20
2019-03-26T22:58:58.701Z,61.50
2019-03-26T23:01:29.518Z,58.80
2019-03-26T23:04:00.329Z,58.78
2019-03-26T23:06:31.250Z,58.23
2019-03-26T23:09:02.203Z,59.08
2019-03-26T23:11:34.962Z,57.90
2019-03-26T23:14:05.833Z,58.15
2019-03-26T23:16:36.892Z,55.35
2019-03-26T23:19:07.718Z,56.70
2019-03-26T23:21:38.621Z,55.58
2019-03-26T23:24:10.467Z,57.70
2019-03-26T23:26:42.906Z,56.55
2019-03-26T23:29:15.264Z,53.90
2019-03-26T23:31:46.124Z,54.15
2019-03-26T23:34:16.937Z,54.08
2019-03-26T23:36:48.087Z,53.42
2019-03-26T23:39:19.175Z,53.15
2019-03-26T23:41:49.999Z,52.27
2019-03-26T23:44:25.966Z,52.73
2019-03-26T23:46:53.569Z,51.28
2019-03-26T23:49:24.409Z,49.03
2019-03-26T23:51:56.550Z,48.65
2019-03-26T23:54:27.395Z,48.42
2019-03-26T23:56:58.201Z,47.03
2019-03-26T23:59:29.126Z,47.08
